Página principal
METAR-TAF:

METAR-TAF

Aeroportos :

Pohnpei, Micronésia

latitude: 06-59N, longitude: 158-12E, altura: 2 m

Observação actual do tempo

O boletim foi feito há 1 hora e 1 minutos, às 22:54 UTC
Vento 11 kt de este
Temperatura 27°C
Humidade 84%
Pressão 1010 hPa
Visibilidade: 24.1 km
Nuvens fragmentadasa uma altura de 1800 ft, Cumulus congestus.
Encobertoa uma altura de 13000 ft

METAR: PTPN 242254Z 08011KT 15SM BKN018TCU OVC130 27/24 A2982 RMK TCU ALQDS

Hora: 10:55 (23:55 UTC)

Previsão

O boletim foi feito há 18 minutos, às 23:37 UTC
Previsão válida de 25 às 00 UTC a 25 às 24 UTC
Vento 11 kt de este
Visibilidade: 10 km
Nuvens dispersasa uma altura de 1800 ft
Nuvens fragmentadasa uma altura de 13000 ft
aguaceiros nas vizinhanças
Temporariamente
de 25 às 00 UTC a 25 às 02 UTC
Visibilidade: 4.8 km
Nuvens fragmentadasa uma altura de 1700 ft
aguaceiros de chuva

TAF: PTPN 242337Z 2500/2524 08011KT P6SM VCSH SCT018 BKN130 TEMPO 2500/2502 3SM SHRA BKN017

Observações e previsões do tempo de mais de 4000 aeroportos (mensagens METAR e TAF).

As estações disponíveis são os pontos amarelos e vermelhos sobre o mapa.

Mova o rato sobre o mapa para ver o nome da estação.

Depois clique no ponto para visualizar as observações e previsões meteorológicas.

Para alterar o mapa : clique nos botões verdes com uma cruz preta para aumentar o zoom; no botão verde com uma pitada de zoom; ou nas setas verdes para mapas adjacentes.


METAR-TAF: